Time;durP1;ratioP1;P1;durP2;ratioP2;P2;SDS_P1;SDS_P2;PMS_P1;PMS_P2;Temp;Humidity;BMP_temperature;BMP_pressure;BME280_temperature;BME280_humidity;BME280_pressure;Samples;Min_cycle;Max_cycle;Signal;HPM_P1;HPM_P2
2023/01/14 00:02:05;;;;;;;;;;;;;;;14.20;46.59;99444.63;4480394;32;34370;-92
2023/01/14 00:04:33;;;;;;;;;;;;;;;14.25;46.32;99439.44;4483552;32;34203;-92
2023/01/14 00:07:01;;;;;;;;;;;;;;;14.31;46.34;99447.25;4482419;32;34269;-81
2023/01/14 00:09:29;;;;;;;;;;;;;;;14.19;46.39;99447.22;4471839;32;33657;-82
2023/01/14 00:11:57;;;;;;;;;;;;;;;14.43;46.06;99442.06;4471742;32;35203;-82
2023/01/14 00:14:29;;;;;;;;;;;;;;;14.49;45.86;99446.44;4483604;32;33972;-81
2023/01/14 00:16:57;;;;;;;;;;;;;;;14.58;45.65;99447.34;4473376;32;32957;-93
2023/01/14 00:19:24;;;;;;;;;;;;;;;14.08;46.39;99444.59;4481842;31;35054;-86
2023/01/14 00:21:54;;;;;;;;;;;;;;;14.72;44.96;99444.75;4465200;32;34372;-87
2023/01/14 00:24:22;;;;;;;;;;;;;;;13.75;47.08;99440.12;4454007;32;34455;-92
2023/01/14 00:26:50;;;;;;;;;;;;;;;13.22;48.03;99436.37;4467820;32;33700;-86
2023/01/14 00:29:18;;;;;;;;;;;;;;;12.26;50.68;99456.34;4480466;31;35121;-93
2023/01/14 00:31:46;;;;;;;;;;;;;;;12.97;49.13;99453.53;4459524;32;35090;-93
2023/01/14 00:34:14;;;;;;;;;;;;;;;13.35;48.18;99445.13;4467495;32;35047;-93
2023/01/14 00:36:42;;;;;;;;;;;;;;;13.68;47.45;99441.84;4482305;32;34137;-80
2023/01/14 00:39:09;;;;;;;;;;;;;;;13.85;47.04;99447.13;4468112;32;34099;-92
2023/01/14 00:41:40;;;;;;;;;;;;;;;13.77;46.99;99448.81;4472333;32;35292;-94
2023/01/14 00:44:08;;;;;;;;;;;;;;;13.92;46.58;99456.72;4467030;32;34052;-92
2023/01/14 00:46:36;;;;;;;;;;;;;;;13.80;46.91;99454.06;4467121;32;33387;-83
2023/01/14 00:49:06;;;;;;;;;;;;;;;13.77;46.99;99448.81;4467295;32;34176;-81
2023/01/14 00:51:33;;;;;;;;;;;;;;;13.88;46.67;99449.75;4435775;32;798621;-81
2023/01/14 00:54:00;;;;;;;;;;;;;;;13.94;46.46;99448.88;4468351;32;34101;-81
2023/01/14 00:56:28;;;;;;;;;;;;;;;14.06;46.26;99452.44;4468316;32;32920;-93
2023/01/14 00:58:55;;;;;;;;;;;;;;;14.00;46.37;99449.78;4464611;32;34018;-94
2023/01/14 01:01:23;;;;;;;;;;;;;;;13.82;46.71;99447.09;4469059;32;35236;-94
2023/01/14 01:03:51;;;;;;;;;;;;;;;13.66;46.78;99447.91;4468442;32;34092;-93
2023/01/14 01:06:19;;;;;;;;;;;;;;;13.82;46.56;99453.19;4476970;32;33456;-82
2023/01/14 01:08:47;;;;;;;;;;;;;;;13.75;46.59;99450.53;4469357;32;34013;-83
2023/01/14 01:11:14;;;;;;;;;;;;;;;13.96;46.23;99439.34;4473265;32;35252;-91
2023/01/14 01:13:42;;;;;;;;;;;;;;;14.04;46.11;99442.84;4482388;32;34728;-88
2023/01/14 01:16:11;;;;;;;;;;;;;;;14.11;45.78;99439.41;4481054;32;33388;-94
2023/01/14 01:18:39;;;;;;;;;;;;;;;14.01;46.04;99438.47;4469762;32;34131;-90
2023/01/14 01:21:14;;;;;;;;;;;;;;;13.93;46.17;99442.81;4468103;32;34900;-92
2023/01/14 01:23:42;;;;;;;;;;;;;;;13.80;46.34;99448.84;4483997;32;33738;-93
2023/01/14 01:26:11;;;;;;;;;;;;;;;13.80;46.44;99451.44;4467581;32;34323;-92
2023/01/14 01:28:39;;;;;;;;;;;;;;;14.02;45.84;99450.69;4461807;32;34115;-85
2023/01/14 01:31:07;;;;;;;;;;;;;;;13.96;45.97;99447.16;4458957;32;33870;-93
2023/01/14 01:33:35;;;;;;;;;;;;;;;13.67;46.46;99441.81;4443690;32;33905;-93
2023/01/14 01:36:02;;;;;;;;;;;;;;;13.88;45.94;99449.75;4467815;32;32289;-94
2023/01/14 01:38:30;;;;;;;;;;;;;;;13.62;46.65;99454.84;4483352;32;34912;-84
2023/01/14 01:40:57;;;;;;;;;;;;;;;13.55;46.85;99451.31;4463969;32;34252;-82
2023/01/14 01:43:26;;;;;;;;;;;;;;;13.72;46.45;99455.75;4468209;32;33783;-82
2023/01/14 01:45:56;;;;;;;;;;;;;;;13.59;46.73;99453.06;4469270;32;33458;-82
2023/01/14 01:48:34;;;;;;;;;;;;;;;13.79;46.31;99445.37;4469460;32;34109;-93
2023/01/14 01:51:04;;;;;;;;;;;;;;;13.79;46.43;99442.78;4463230;32;35838;-91
2023/01/14 01:53:36;;;;;;;;;;;;;;;13.96;45.91;99448.03;4476149;32;34943;-88
2023/01/14 01:56:04;;;;;;;;;;;;;;;13.78;46.21;99451.44;4483181;32;33378;-93
2023/01/14 01:58:31;;;;;;;;;;;;;;;14.16;45.40;99455.03;4457366;32;34974;-81
2023/01/14 02:00:59;;;;;;;;;;;;;;;13.99;45.63;99452.41;4473038;32;35227;-85
2023/01/14 02:03:37;;;;;;;;;;;;;;;13.91;45.63;99441.94;4463035;32;34161;-94
2023/01/14 02:06:04;;;;;;;;;;;;;;;13.98;45.44;99454.13;4467701;32;33408;-94
2023/01/14 02:08:32;;;;;;;;;;;;;;;13.98;45.58;99453.25;4482159;32;32856;-91
2023/01/14 02:11:14;;;;;;;;;;;;;;;13.82;45.83;99452.31;4465285;32;34306;-83
2023/01/14 02:13:42;;;;;;;;;;;;;;;14.03;45.35;99457.63;4468234;32;33893;-82
2023/01/14 02:16:12;;;;;;;;;;;;;;;13.36;46.53;99458.16;4483166;32;33524;-89
2023/01/14 02:18:58;;;;;;;;;;;;;;;13.69;45.98;99458.34;4477910;32;33935;-86
2023/01/14 02:21:29;;;;;;;;;;;;;;;14.09;45.26;99452.44;4478570;32;34188;-94
2023/01/14 02:24:02;;;;;;;;;;;;;;;14.18;44.90;99455.94;4468960;32;35006;-94
2023/01/14 02:26:36;;;;;;;;;;;;;;;14.21;44.68;99449.00;4483341;32;33346;-82
2023/01/14 02:29:22;;;;;;;;;;;;;;;14.25;44.50;99452.47;4477100;32;34112;-88
2023/01/14 02:31:52;;;;;;;;;;;;;;;13.92;44.89;99448.88;4481664;32;34430;-93
2023/01/14 02:34:21;;;;;;;;;;;;;;;13.93;44.91;99455.84;4475276;32;33778;-82
2023/01/14 02:37:07;;;;;;;;;;;;;;;13.27;46.32;99454.63;4466348;32;33434;-93
2023/01/14 02:39:36;;;;;;;;;;;;;;;13.29;46.37;99458.09;4477015;32;34020;-89
2023/01/14 02:45:11;;;;;;;;;;;;;;;13.54;45.67;99466.94;4479476;32;33888;-91
2023/01/14 02:47:40;;;;;;;;;;;;;;;13.20;46.22;99474.53;4469199;32;33394;-91
2023/01/14 02:50:08;;;;;;;;;;;;;;;13.12;46.26;99466.66;4468089;32;35046;-89
2023/01/14 02:52:36;;;;;;;;;;;;;;;13.46;45.75;99473.84;4468387;32;34320;-94
2023/01/14 02:55:23;;;;;;;;;;;;;;;13.57;45.58;99474.78;4480215;32;34592;-93
2023/01/14 02:58:07;;;;;;;;;;;;;;;12.20;49.00;99487.44;4478449;32;34175;-89
2023/01/14 03:00:38;;;;;;;;;;;;;;;13.15;46.27;99490.13;4458151;32;34277;-93
2023/01/14 03:03:08;;;;;;;;;;;;;;;13.43;45.46;99484.25;4478793;32;33739;-83
2023/01/14 03:05:39;;;;;;;;;;;;;;;13.44;45.58;99480.78;4481558;32;34337;-89
2023/01/14 03:08:31;;;;;;;;;;;;;;;12.98;46.64;99488.22;4461600;32;31864;-81
2023/01/14 03:11:02;;;;;;;;;;;;;;;12.83;47.20;99492.44;4468365;32;34389;-93
2023/01/14 03:13:30;;;;;;;;;;;;;;;13.23;46.20;99495.41;4459457;32;34125;-90
2023/01/14 03:16:15;;;;;;;;;;;;;;;13.02;46.59;99493.47;4482567;32;34825;-88
2023/01/14 03:18:55;;;;;;;;;;;;;;;13.10;46.47;99497.00;4465878;32;33844;-91
2023/01/14 03:21:23;;;;;;;;;;;;;;;12.64;47.36;99496.59;4476658;32;34070;-92
2023/01/14 03:24:11;;;;;;;;;;;;;;;12.80;47.12;99496.72;4467376;32;33083;-87
2023/01/14 03:26:39;;;;;;;;;;;;;;;12.23;48.29;99497.87;4469593;32;34242;-94
2023/01/14 03:29:09;;;;;;;;;;;;;;;12.11;48.62;99496.03;4481350;32;34054;-80
2023/01/14 03:31:38;;;;;;;;;;;;;;;12.25;48.28;99502.25;4466267;32;33840;-94
2023/01/14 03:34:06;;;;;;;;;;;;;;;12.37;47.99;99509.31;4468585;32;34245;-90
2023/01/14 03:36:34;;;;;;;;;;;;;;;12.75;47.08;99508.84;4468251;32;34328;-93
2023/01/14 03:39:04;;;;;;;;;;;;;;;12.91;46.65;99510.72;4468692;32;34199;-82
2023/01/14 03:44:30;;;;;;;;;;;;;;;13.20;45.69;99507.50;4472367;32;34424;-81
2023/01/14 03:46:57;;;;;;;;;;;;;;;13.11;45.78;99509.16;4481361;32;35047;-82
2023/01/14 03:49:25;;;;;;;;;;;;;;;12.68;46.59;99512.25;4484385;32;33576;-81
2023/01/14 03:51:58;;;;;;;;;;;;;;;12.92;46.03;99507.28;4467992;32;34211;-80
2023/01/14 03:54:46;;;;;;;;;;;;;;;13.17;45.58;99515.28;4456650;32;33107;-90
2023/01/14 03:57:13;;;;;;;;;;;;;;;13.02;45.92;99522.09;4483988;32;35022;-93
2023/01/14 03:59:40;;;;;;;;;;;;;;;13.13;45.23;99516.97;4483915;32;34307;-83
2023/01/14 04:02:08;;;;;;;;;;;;;;;12.84;45.68;99515.03;4475510;32;34371;-90
2023/01/14 04:04:35;;;;;;;;;;;;;;;12.24;46.66;99513.53;4466780;32;34508;-92
2023/01/14 04:07:02;;;;;;;;;;;;;;;12.55;46.25;99508.66;4469394;32;34509;-91
2023/01/14 04:09:30;;;;;;;;;;;;;;;12.41;46.42;99511.09;4482889;32;33380;-95
2023/01/14 04:11:57;;;;;;;;;;;;;;;12.63;45.86;99514.81;4476864;32;34096;-81
2023/01/14 04:17:10;;;;;;;;;;;;;;;12.96;45.05;99522.06;4483934;32;34382;-92
2023/01/14 04:19:37;;;;;;;;;;;;;;;12.93;45.14;99515.94;4472895;32;33227;-94
2023/01/14 04:22:04;;;;;;;;;;;;;;;12.80;45.09;99517.56;4474379;32;34801;-93
2023/01/14 04:24:32;;;;;;;;;;;;;;;12.84;44.87;99525.44;4483816;32;34121;-93
2023/01/14 04:26:59;;;;;;;;;;;;;;;12.98;44.62;99522.94;4484077;32;34309;-92
2023/01/14 04:29:26;;;;;;;;;;;;;;;13.10;44.33;99527.34;4484116;32;32915;-93
2023/01/14 04:31:54;;;;;;;;;;;;;;;13.14;44.23;99523.91;4473306;32;34071;-93
2023/01/14 04:34:21;;;;;;;;;;;;;;;13.11;44.33;99519.59;4482025;32;34372;-85
2023/01/14 04:36:48;;;;;;;;;;;;;;;13.21;44.17;99522.25;4482660;32;34224;-90
2023/01/14 04:39:16;;;;;;;;;;;;;;;13.32;43.54;99524.09;4483975;32;34151;-93
2023/01/14 04:44:30;;;;;;;;;;;;;;;13.24;43.34;99545.75;4482256;32;34363;-93
2023/01/14 04:46:57;;;;;;;;;;;;;;;13.03;43.00;99542.06;4473175;32;33406;-88
2023/01/14 04:49:24;;;;;;;;;;;;;;;13.01;43.12;99543.78;4482836;32;32979;-83
2023/01/14 04:51:52;;;;;;;;;;;;;;;12.73;43.25;99542.66;4472044;32;34039;-89
2023/01/14 04:54:19;;;;;;;;;;;;;;;13.13;42.53;99553.41;4482722;32;35376;-91
2023/01/14 04:56:46;;;;;;;;;;;;;;;13.04;42.84;99559.44;4483650;32;33629;-81
2023/01/14 04:59:13;;;;;;;;;;;;;;;12.82;43.01;99557.47;4483627;32;34246;-90
2023/01/14 05:01:41;;;;;;;;;;;;;;;12.85;43.10;99557.50;4465909;32;34097;-93
2023/01/14 05:04:08;;;;;;;;;;;;;;;13.01;42.75;99556.78;4483537;32;33864;-86
2023/01/14 05:06:36;;;;;;;;;;;;;;;13.11;42.33;99550.81;4482259;32;34119;-92
2023/01/14 05:09:03;;;;;;;;;;;;;;;12.90;42.83;99551.47;4481994;32;33189;-91
2023/01/14 05:11:30;;;;;;;;;;;;;;;12.87;42.88;99546.25;4481996;32;33885;-93
2023/01/14 05:13:57;;;;;;;;;;;;;;;12.18;43.46;99553.28;4483376;32;34508;-81
2023/01/14 05:16:26;;;;;;;;;;;;;;;12.53;42.96;99550.22;4483936;32;34026;-91
2023/01/14 05:18:54;;;;;;;;;;;;;;;12.59;42.79;99550.31;4475514;32;33549;-81
2023/01/14 05:21:21;;;;;;;;;;;;;;;12.63;42.89;99554.69;4475038;32;34173;-92
2023/01/14 05:23:48;;;;;;;;;;;;;;;11.34;46.06;99556.41;4482712;32;33793;-84
2023/01/14 05:26:16;;;;;;;;;;;;;;;10.74;48.32;99568.34;4483569;32;34279;-88
2023/01/14 05:28:43;;;;;;;;;;;;;;;10.50;49.27;99561.00;4483651;32;33479;-90
2023/01/14 05:31:10;;;;;;;;;;;;;;;10.08;50.27;99566.16;4483531;32;33903;-89
2023/01/14 05:33:38;;;;;;;;;;;;;;;11.10;47.67;99572.44;4478821;32;34484;-93
2023/01/14 05:36:06;;;;;;;;;;;;;;;11.41;46.96;99569.50;4471925;32;32480;-92
2023/01/14 05:38:33;;;;;;;;;;;;;;;11.77;46.20;99570.03;4481692;32;34058;-84
2023/01/14 05:41:00;;;;;;;;;;;;;;;11.86;46.05;99570.22;4482266;32;34191;-88
2023/01/14 05:46:14;;;;;;;;;;;;;;;11.86;45.41;99575.41;4483823;32;34820;-81
2023/01/14 05:48:41;;;;;;;;;;;;;;;12.04;44.83;99570.44;4467090;32;33468;-81
2023/01/14 05:51:12;;;;;;;;;;;;;;;11.88;44.84;99568.50;4480704;32;34290;-82
2023/01/14 05:53:39;;;;;;;;;;;;;;;12.06;44.59;99573.94;4468840;32;35165;-84
2023/01/14 05:56:07;;;;;;;;;;;;;;;11.74;44.95;99575.16;4483829;32;34137;-81
2023/01/14 05:58:34;;;;;;;;;;;;;;;11.81;44.56;99572.69;4459752;32;33238;-81
2023/01/14 06:06:38;;;;;;;;;;;;;;;11.10;45.29;99591.50;4470255;32;34971;-82
2023/01/14 06:09:07;;;;;;;;;;;;;;;11.46;44.62;99592.94;4469214;32;33199;-82
2023/01/14 06:11:34;;;;;;;;;;;;;;;11.61;44.17;99600.97;4465734;32;34253;-81
2023/01/14 06:14:02;;;;;;;;;;;;;;;11.42;44.31;99604.13;4468350;32;33722;-90
2023/01/14 06:16:32;;;;;;;;;;;;;;;11.61;43.97;99606.16;4468901;32;34376;-93
2023/01/14 06:18:59;;;;;;;;;;;;;;;11.75;43.58;99611.56;4461511;32;34267;-92
2023/01/14 06:21:28;;;;;;;;;;;;;;;11.88;43.16;99616.12;4478249;32;33615;-95
2023/01/14 06:23:55;;;;;;;;;;;;;;;11.87;43.25;99616.12;4468319;32;34708;-82
2023/01/14 06:26:27;;;;;;;;;;;;;;;11.94;43.07;99610.16;4482839;32;35044;-92
2023/01/14 06:28:56;;;;;;;;;;;;;;;11.97;43.11;99605.00;4469441;32;33113;-84
2023/01/14 06:31:23;;;;;;;;;;;;;;;11.82;43.27;99605.63;4480706;32;34092;-82
2023/01/14 06:33:50;;;;;;;;;;;;;;;11.76;43.50;99613.31;4477700;32;34977;-93
2023/01/14 06:36:18;;;;;;;;;;;;;;;11.62;43.74;99607.91;4466423;32;34926;-93
2023/01/14 06:38:45;;;;;;;;;;;;;;;11.86;43.41;99607.44;4482774;32;35801;-82
2023/01/14 06:41:12;;;;;;;;;;;;;;;11.85;43.04;99605.69;4479762;32;34748;-87
2023/01/14 06:43:41;;;;;;;;;;;;;;;11.73;43.30;99604.59;4482995;32;34447;-93
2023/01/14 06:46:09;;;;;;;;;;;;;;;11.49;43.95;99621.56;4460730;32;34204;-82
2023/01/14 06:48:37;;;;;;;;;;;;;;;11.43;44.01;99613.66;4481909;32;34168;-89
2023/01/14 06:51:05;;;;;;;;;;;;;;;11.28;44.37;99618.59;4474434;32;34089;-81
2023/01/14 06:53:32;;;;;;;;;;;;;;;11.53;44.21;99620.75;4467890;32;34102;-82
2023/01/14 06:56:03;;;;;;;;;;;;;;;11.60;44.02;99614.81;4482351;32;35147;-91
2023/01/14 06:58:31;;;;;;;;;;;;;;;11.65;43.89;99623.53;4482849;32;33343;-81
2023/01/14 07:00:58;;;;;;;;;;;;;;;11.75;43.83;99616.78;4474042;32;34170;-93
2023/01/14 07:03:25;;;;;;;;;;;;;;;11.70;43.56;99621.00;4481595;32;34299;-80
2023/01/14 07:05:53;;;;;;;;;;;;;;;11.66;43.85;99619.22;4481217;32;34434;-82
2023/01/14 07:08:21;;;;;;;;;;;;;;;11.62;44.03;99633.88;4453568;32;33053;-89
2023/01/14 07:10:50;;;;;;;;;;;;;;;11.53;44.22;99640.66;4465981;32;34967;-90
2023/01/14 07:13:18;;;;;;;;;;;;;;;11.80;43.75;99632.41;4468464;32;34252;-91
2023/01/14 07:15:45;;;;;;;;;;;;;;;11.96;43.28;99638.75;4483875;32;34657;-87
2023/01/14 07:18:12;;;;;;;;;;;;;;;11.81;43.63;99642.81;4484863;32;33977;-87
2023/01/14 07:20:39;;;;;;;;;;;;;;;11.68;43.95;99644.38;4480946;32;34135;-83
2023/01/14 07:23:07;;;;;;;;;;;;;;;11.59;44.21;99643.34;4481573;32;35258;-82
2023/01/14 07:25:35;;;;;;;;;;;;;;;11.42;44.57;99649.13;4468674;32;34081;-86
2023/01/14 07:28:03;;;;;;;;;;;;;;;11.55;44.59;99655.38;4462376;32;33885;-84
2023/01/14 07:30:31;;;;;;;;;;;;;;;11.64;44.50;99657.28;4468244;32;33974;-86
2023/01/14 07:32:59;;;;;;;;;;;;;;;12.08;43.64;99660.56;4467321;32;34852;-81
2023/01/14 07:35:27;;;;;;;;;;;;;;;11.18;46.00;99653.91;4473277;32;33634;-81
2023/01/14 07:37:55;;;;;;;;;;;;;;;10.99;47.47;99650.09;4481034;32;33085;-85
2023/01/14 07:40:22;;;;;;;;;;;;;;;11.46;46.11;99647.47;4483775;32;35170;-81
2023/01/14 07:42:54;;;;;;;;;;;;;;;11.43;46.08;99657.78;4484043;32;34060;-84
2023/01/14 07:45:21;;;;;;;;;;;;;;;11.33;46.37;99655.91;4479803;32;33696;-85
2023/01/14 07:47:48;;;;;;;;;;;;;;;11.08;46.76;99658.03;4468689;32;33071;-83
2023/01/14 07:50:16;;;;;;;;;;;;;;;11.53;45.95;99656.22;4476740;32;34172;-86
2023/01/14 07:52:43;;;;;;;;;;;;;;;11.51;45.92;99661.38;4462715;32;34247;-83
2023/01/14 07:55:10;;;;;;;;;;;;;;;11.33;46.42;99659.38;4460506;32;34363;-83
2023/01/14 07:57:38;;;;;;;;;;;;;;;11.52;46.17;99662.28;4470809;32;31839;-85
2023/01/14 08:00:06;;;;;;;;;;;;;;;11.06;47.74;99667.53;4475162;32;33977;-88
2023/01/14 08:02:37;;;;;;;;;;;;;;;11.29;47.37;99660.16;4474517;32;34481;-91
2023/01/14 08:05:05;;;;;;;;;;;;;;;10.32;50.96;99677.25;4476268;32;33969;-88
2023/01/14 08:07:33;;;;;;;;;;;;;;;11.43;48.51;99668.16;4479767;32;33994;-89
2023/01/14 08:10:00;;;;;;;;;;;;;;;11.41;48.12;99665.56;4472783;32;34350;-83
2023/01/14 08:12:34;;;;;;;;;;;;;;;11.83;47.33;99667.16;4468578;32;34968;-90
2023/01/14 08:15:01;;;;;;;;;;;;;;;10.84;50.08;99667.97;4471800;32;35508;-93
2023/01/14 08:17:28;;;;;;;;;;;;;;;11.30;48.87;99667.09;4470117;32;33061;-85
2023/01/14 08:19:56;;;;;;;;;;;;;;;10.02;52.79;99677.41;4484400;32;35270;-87
2023/01/14 08:22:23;;;;;;;;;;;;;;;9.93;53.47;99680.66;4484197;32;33765;-82
2023/01/14 08:24:50;;;;;;;;;;;;;;;10.87;51.62;99683.56;4484229;32;34007;-83
2023/01/14 08:27:18;;;;;;;;;;;;;;;10.22;53.02;99686.47;4484183;32;34253;-91
2023/01/14 08:29:45;;;;;;;;;;;;;;;10.53;52.86;99689.78;4484646;32;34379;-91
2023/01/14 08:32:13;;;;;;;;;;;;;;;10.28;53.93;99694.44;4484122;32;35320;-81
2023/01/14 08:34:40;;;;;;;;;;;;;;;10.31;53.67;99698.81;4484319;32;33855;-83
2023/01/14 08:37:07;;;;;;;;;;;;;;;10.28;54.20;99701.34;4484201;32;34119;-89
2023/01/14 08:39:35;;;;;;;;;;;;;;;10.04;54.84;99701.59;4470617;31;34287;-86
2023/01/14 08:42:02;;;;;;;;;;;;;;;10.17;54.79;99704.53;4484149;32;35288;-82
2023/01/14 08:44:29;;;;;;;;;;;;;;;10.23;55.12;99706.41;4484137;32;35082;-87
2023/01/14 08:46:56;;;;;;;;;;;;;;;10.22;54.93;99715.84;4491210;32;34409;-85
2023/01/14 08:49:24;;;;;;;;;;;;;;;10.01;55.76;99717.97;4483998;32;34491;-90
2023/01/14 08:51:54;;;;;;;;;;;;;;;9.29;58.14;99717.88;4483939;32;34383;-82
2023/01/14 08:54:21;;;;;;;;;;;;;;;10.20;55.81;99727.91;4469670;32;35286;-93
2023/01/14 08:56:48;;;;;;;;;;;;;;;10.38;55.48;99722.31;4484622;32;32943;-83
2023/01/14 08:59:16;;;;;;;;;;;;;;;9.83;56.96;99717.53;4480631;32;33870;-89
2023/01/14 09:01:43;;;;;;;;;;;;;;;10.50;55.53;99720.84;4484076;32;34122;-89
2023/01/14 09:04:20;;;;;;;;;;;;;;;10.74;54.83;99715.28;4483753;32;33980;-93
2023/01/14 09:17:59;;;;;;;;;;;;;;;10.45;56.30;99733.69;4468636;32;34124;-90
2023/01/14 09:20:29;;;;;;;;;;;;;;;10.17;57.22;99737.34;4471620;32;34510;-94
2023/01/14 09:22:56;;;;;;;;;;;;;;;10.89;55.59;99736.34;4469890;32;34935;-91
2023/01/14 09:25:24;;;;;;;;;;;;;;;10.42;56.32;99724.13;4469765;32;34304;-89
2023/01/14 09:27:53;;;;;;;;;;;;;;;10.45;56.44;99733.69;4483704;32;33621;-82
2023/01/14 09:30:20;;;;;;;;;;;;;;;10.12;57.29;99729.47;4471655;32;33896;-92
2023/01/14 09:32:48;;;;;;;;;;;;;;;11.01;55.15;99722.75;4467466;32;34146;-94
2023/01/14 09:35:15;;;;;;;;;;;;;;;10.58;55.59;99719.28;4478162;32;35204;-93
2023/01/14 09:37:42;;;;;;;;;;;;;;;9.83;58.02;99727.88;4485281;32;33496;-95
2023/01/14 09:40:10;;;;;;;;;;;;;;;10.19;57.59;99723.59;4493741;32;35502;-93
2023/01/14 09:42:41;;;;;;;;;;;;;;;10.17;57.73;99722.66;4470765;32;35251;-94
2023/01/14 09:45:28;;;;;;;;;;;;;;;9.63;58.79;99719.63;4484474;32;34834;-93
2023/01/14 09:48:06;;;;;;;;;;;;;;;10.08;58.24;99717.28;4485926;32;33534;-88
2023/01/14 09:50:33;;;;;;;;;;;;;;;10.50;56.99;99710.47;4485456;32;34416;-93
2023/01/14 09:53:04;;;;;;;;;;;;;;;11.12;55.30;99719.53;4493918;32;34805;-93
2023/01/14 09:55:37;;;;;;;;;;;;;;;11.28;54.58;99725.88;4479244;32;33656;-92
2023/01/14 09:58:09;;;;;;;;;;;;;;;11.83;52.34;99720.81;4471891;32;33455;-92
2023/01/14 10:00:41;;;;;;;;;;;;;;;11.91;53.19;99708.84;4476616;32;34775;-84
2023/01/14 10:03:48;;;;;;;;;;;;;;;10.71;55.73;99721.28;4478803;32;34334;-82
2023/01/14 10:06:16;;;;;;;;;;;;;;;11.40;53.60;99709.66;4482688;32;35113;-93
2023/01/14 10:08:49;;;;;;;;;;;;;;;11.13;54.43;99715.22;4468115;32;34334;-87
2023/01/14 10:11:17;;;;;;;;;;;;;;;11.12;54.92;99714.34;4467815;32;33692;-82
2023/01/14 10:13:49;;;;;;;;;;;;;;;10.45;56.00;99718.13;4469307;32;34537;-92
2023/01/14 10:16:21;;;;;;;;;;;;;;;10.54;55.57;99717.47;4459739;32;33954;-92
2023/01/14 10:18:54;;;;;;;;;;;;;;;11.25;53.66;99706.78;4459834;32;32943;-91
2023/01/14 10:21:27;;;;;;;;;;;;;;;11.79;52.13;99712.09;4462154;32;34093;-90
2023/01/14 10:23:55;;;;;;;;;;;;;;;11.91;51.48;99708.84;4473373;32;34025;-90
2023/01/14 10:26:25;;;;;;;;;;;;;;;11.71;51.83;99697.22;4473015;32;36228;-92
2023/01/14 10:28:53;;;;;;;;;;;;;;;11.25;53.70;99709.38;4458078;32;34493;-92
2023/01/14 10:31:25;;;;;;;;;;;;;;;11.51;52.66;99702.06;4464996;32;34212;-83
2023/01/14 10:33:53;;;;;;;;;;;;;;;12.15;51.15;99693.59;4455400;32;34816;-94
2023/01/14 10:36:22;;;;;;;;;;;;;;;10.82;54.45;99695.56;4472592;32;35031;-86
2023/01/14 10:38:49;;;;;;;;;;;;;;;10.79;54.79;99700.69;4458401;32;34783;-90
2023/01/14 10:41:48;;;;;;;;;;;;;;;11.97;51.87;99695.97;4456989;32;34129;-82
2023/01/14 10:44:04;;;;;;;;;;;;;;;10.82;53.77;99690.38;4459609;32;34397;-82
2023/01/14 10:46:32;;;;;;;;;;;;;;;11.80;51.69;99699.97;4458160;32;33914;-92
2023/01/14 10:49:04;;;;;;;;;;;;;;;11.88;51.73;99698.38;4474443;32;33253;-81
2023/01/14 10:51:36;;;;;;;;;;;;;;;12.16;50.86;99692.78;4464761;32;33996;-83
2023/01/14 10:54:24;;;;;;;;;;;;;;;12.12;50.89;99692.69;4469117;32;34915;-91
2023/01/14 10:56:55;;;;;;;;;;;;;;;11.15;53.53;99692.78;4474617;32;33572;-93
2023/01/14 10:59:22;;;;;;;;;;;;;;;11.61;52.68;99693.59;4470413;32;33339;-89
2023/01/14 11:01:49;;;;;;;;;;;;;;;12.64;49.58;99683.88;4484556;32;34252;-90
2023/01/14 11:04:17;;;;;;;;;;;;;;;11.95;51.36;99681.19;4483880;32;34816;-88
2023/01/14 11:06:44;;;;;;;;;;;;;;;11.93;51.11;99696.72;4484875;32;34646;-83
2023/01/14 11:09:18;;;;;;;;;;;;;;;11.45;51.72;99689.84;4461716;32;33768;-82
2023/01/14 11:11:46;;;;;;;;;;;;;;;11.54;51.53;99694.31;4463631;32;34016;-91
2023/01/14 11:14:31;;;;;;;;;;;;;;;12.13;51.11;99692.72;4470260;32;35317;-91
2023/01/14 11:16:59;;;;;;;;;;;;;;;11.77;52.15;99685.19;4484516;32;34335;-82
2023/01/14 11:19:27;;;;;;;;;;;;;;;12.77;48.79;99671.91;4484745;32;34453;-84
2023/01/14 11:21:55;;;;;;;;;;;;;;;12.90;49.56;99670.31;4470018;32;34342;-91
2023/01/14 11:24:30;;;;;;;;;;;;;;;13.10;47.84;99670.53;4484151;32;33892;-92
2023/01/14 11:27:01;;;;;;;;;;;;;;;13.42;47.01;99660.47;4470262;32;33590;-81
2023/01/14 11:29:42;;;;;;;;;;;;;;;13.08;48.05;99660.13;4470302;32;33078;-92
2023/01/14 11:32:10;;;;;;;;;;;;;;;12.40;49.90;99663.63;4469831;32;33947;-85
2023/01/14 11:34:38;;;;;;;;;;;;;;;11.64;51.43;99665.06;4484747;32;34356;-91
2023/01/14 11:37:09;;;;;;;;;;;;;;;12.03;51.41;99662.25;4484170;32;33776;-84
2023/01/14 11:39:37;;;;;;;;;;;;;;;12.51;49.59;99656.00;4470389;32;34203;-87
2023/01/14 11:42:24;;;;;;;;;;;;;;;12.64;49.11;99657.87;4484543;32;33907;-84
2023/01/14 11:45:14;;;;;;;;;;;;;;;12.54;49.99;99656.03;4470453;32;34008;-84
2023/01/14 11:47:45;;;;;;;;;;;;;;;12.46;49.55;99662.84;4470453;32;34077;-83
2023/01/14 11:50:15;;;;;;;;;;;;;;;12.30;50.15;99661.75;4483824;32;34085;-91
2023/01/14 11:52:54;;;;;;;;;;;;;;;12.38;48.95;99652.31;4470012;32;35011;-93
2023/01/14 11:55:21;;;;;;;;;;;;;;;12.76;48.28;99646.72;4470194;32;34838;-83
2023/01/14 11:57:48;;;;;;;;;;;;;;;12.95;48.32;99641.75;4469688;32;34200;-90
2023/01/14 12:00:16;;;;;;;;;;;;;;;12.60;49.41;99639.59;4470110;32;33410;-92
2023/01/14 12:02:44;;;;;;;;;;;;;;;12.57;49.04;99644.78;4483521;32;34134;-82
2023/01/14 12:05:15;;;;;;;;;;;;;;;11.83;51.01;99642.87;4484028;32;34157;-92
2023/01/14 12:07:52;;;;;;;;;;;;;;;11.32;51.20;99638.56;4469779;32;34110;-91
2023/01/14 12:10:20;;;;;;;;;;;;;;;12.37;48.84;99634.13;4469984;32;33700;-91
2023/01/14 12:18:43;;;;;;;;;;;;;;;11.25;51.95;99634.09;4483827;32;34066;-90
2023/01/14 12:21:10;;;;;;;;;;;;;;;11.98;50.40;99637.94;4470089;32;34235;-92
2023/01/14 12:23:41;;;;;;;;;;;;;;;11.97;49.00;99633.59;4469780;32;33927;-91
2023/01/14 12:26:16;;;;;;;;;;;;;;;12.24;48.02;99635.69;4469739;32;34880;-91
2023/01/14 12:28:44;;;;;;;;;;;;;;;12.59;47.21;99624.88;4470247;32;34198;-88
2023/01/14 12:31:12;;;;;;;;;;;;;;;12.29;47.45;99625.34;4469831;32;34120;-89
2023/01/14 12:33:41;;;;;;;;;;;;;;;11.91;48.38;99620.50;4484092;32;33790;-91
2023/01/14 12:36:27;;;;;;;;;;;;;;;12.51;47.14;99619.56;4469127;32;34025;-88
2023/01/14 12:47:34;;;;;;;;;;;;;;;12.03;48.98;99604.22;4484078;32;34325;-90
2023/01/14 12:50:08;;;;;;;;;;;;;;;11.47;50.44;99605.06;4483397;32;34254;-91
2023/01/14 12:52:38;;;;;;;;;;;;;;;11.74;49.84;99607.22;4484068;32;33323;-84
2023/01/14 12:55:05;;;;;;;;;;;;;;;12.08;48.76;99618.13;4469118;32;34307;-89
2023/01/14 12:57:33;;;;;;;;;;;;;;;12.40;48.57;99608.16;4469835;32;35400;-87
2023/01/14 13:00:08;;;;;;;;;;;;;;;12.59;48.27;99602.31;4469807;32;34243;-82
2023/01/14 13:02:38;;;;;;;;;;;;;;;12.80;47.21;99590.41;4483738;32;33744;-88
2023/01/14 13:05:10;;;;;;;;;;;;;;;12.90;47.31;99597.47;4463319;32;34812;-89
2023/01/14 13:07:39;;;;;;;;;;;;;;;12.77;47.46;99593.00;4469900;32;33559;-90
2023/01/14 13:10:08;;;;;;;;;;;;;;;11.67;50.66;99603.66;4468808;32;34057;-82
2023/01/14 13:12:39;;;;;;;;;;;;;;;12.82;47.74;99604.31;4469267;32;33330;-88
2023/01/14 13:15:27;;;;;;;;;;;;;;;11.89;50.15;99601.41;4468564;32;34199;-89
2023/01/14 13:18:01;;;;;;;;;;;;;;;11.82;50.39;99604.72;4472605;32;33927;-89
2023/01/14 13:20:29;;;;;;;;;;;;;;;11.04;51.17;99606.94;4483821;32;33805;-87
2023/01/14 13:22:56;;;;;;;;;;;;;;;12.14;49.34;99608.69;4472807;32;33938;-83
2023/01/14 13:25:33;;;;;;;;;;;;;;;12.23;48.54;99591.47;4482957;32;33020;-83
2023/01/14 13:28:02;;;;;;;;;;;;;;;12.39;48.15;99591.69;4483790;32;34436;-90
2023/01/14 13:30:30;;;;;;;;;;;;;;;12.85;46.88;99599.16;4483748;32;33813;-82
2023/01/14 13:33:01;;;;;;;;;;;;;;;12.05;48.54;99612.91;4483276;32;33359;-81
2023/01/14 13:35:29;;;;;;;;;;;;;;;12.38;47.58;99600.31;4481028;32;34255;-89
2023/01/14 13:38:15;;;;;;;;;;;;;;;12.88;46.03;99596.59;4468803;32;34540;-82
2023/01/14 13:40:49;;;;;;;;;;;;;;;13.32;46.04;99589.19;4483229;32;35152;-83
2023/01/14 13:43:21;;;;;;;;;;;;;;;13.39;45.53;99590.13;4483949;32;33220;-90
2023/01/14 13:45:53;;;;;;;;;;;;;;;13.71;44.67;99599.91;4469353;32;32808;-85
2023/01/14 13:48:24;;;;;;;;;;;;;;;13.47;44.42;99606.69;4469004;32;35457;-90